Time;durP1;ratioP1;P1;durP2;ratioP2;P2;SDS_P1;SDS_P2;PMS_P1;PMS_P2;Temp;Humidity;BMP_temperature;BMP_pressure;BME280_temperature;BME280_humidity;BME280_pressure;Samples;Min_cycle;Max_cycle;Signal;HPM_P1;HPM_P2
2023/02/13 00:02:51;;;;;;;125.90;67.30;;;;;;;1.87;88.51;100802.81;221404;1280;22536;-73
2023/02/13 00:07:53;;;;;;;120.00;63.30;;;;;;;1.92;88.89;100806.34;221233;1278;22523;-74
2023/02/13 00:13:00;;;;;;;112.90;60.60;;;;;;;1.94;88.53;100808.97;221128;1280;22568;-74
2023/02/13 00:18:02;;;;;;;120.00;60.20;;;;;;;1.95;88.51;100813.80;221249;1280;24277;-74
2023/02/13 00:23:05;;;;;;;116.00;60.50;;;;;;;1.97;88.45;100818.23;221339;1278;22578;-74
2023/02/13 00:28:07;;;;;;;113.30;58.40;;;;;;;1.96;88.20;100812.55;221440;1279;22530;-73
2023/02/13 00:33:10;;;;;;;106.20;56.10;;;;;;;1.94;88.49;100803.43;221025;1265;24322;-75
2023/02/13 00:38:13;;;;;;;104.30;54.50;;;;;;;1.91;88.69;100802.57;221032;1280;22655;-74
2023/02/13 00:43:15;;;;;;;116.30;59.60;;;;;;;1.91;88.41;100794.27;221216;1280;23254;-75
2023/02/13 00:48:21;;;;;;;120.20;61.60;;;;;;;1.90;88.42;100792.05;221428;1280;22589;-74
2023/02/13 00:53:27;;;;;;;109.30;57.00;;;;;;;1.91;88.48;100795.83;221256;1280;23410;-74
2023/02/13 00:58:30;;;;;;;115.20;55.40;;;;;;;1.93;88.89;100791.89;221323;1278;25423;-73
2023/02/13 01:03:33;;;;;;;109.70;54.80;;;;;;;1.96;88.95;100795.02;221099;1280;22534;-74
2023/02/13 01:08:38;;;;;;;100.60;53.40;;;;;;;1.98;88.90;100793.14;221330;1278;22669;-74
2023/02/13 01:13:40;;;;;;;95.90;52.10;;;;;;;2.00;89.00;100789.93;221498;1278;22544;-74
2023/02/13 01:18:43;;;;;;;92.10;48.00;;;;;;;2.03;88.91;100791.32;221110;1280;25404;-74
2023/02/13 01:23:46;;;;;;;83.10;45.70;;;;;;;2.08;89.26;100788.61;221330;1275;22538;-74
2023/02/13 01:28:52;;;;;;;80.50;42.70;;;;;;;2.10;89.11;100786.90;221433;1278;25263;-74
2023/02/13 01:33:56;;;;;;;79.10;41.60;;;;;;;2.09;88.86;100780.68;221482;1278;23356;-75
2023/02/13 01:38:59;;;;;;;69.00;37.90;;;;;;;2.09;89.26;100778.79;221468;1277;25046;-74
2023/02/13 01:44:23;;;;;;;70.20;37.20;;;;;;;2.10;89.12;100773.02;220990;1280;22660;-74
2023/02/13 01:49:25;;;;;;;65.20;35.00;;;;;;;2.10;89.27;100767.63;221447;1278;22656;-72
2023/02/13 01:54:31;;;;;;;66.10;35.80;;;;;;;2.13;89.60;100764.86;221494;1278;25367;-75
2023/02/13 01:59:56;;;;;;;74.00;37.30;;;;;;;2.17;89.41;100761.19;221437;1276;24260;-75
2023/02/13 02:05:04;;;;;;;67.00;36.20;;;;;;;2.22;89.75;100761.24;221719;1280;22561;-75
2023/02/13 02:10:15;;;;;;;68.00;37.60;;;;;;;2.26;89.85;100752.30;221285;1280;22713;-73
2023/02/13 02:15:20;;;;;;;70.80;37.50;;;;;;;2.28;89.79;100751.88;221330;1280;22650;-74
2023/02/13 02:21:14;;;;;;;72.10;38.10;;;;;;;2.30;89.71;100745.98;221450;1276;24197;-73
2023/02/13 02:27:03;;;;;;;62.30;34.50;;;;;;;2.34;89.79;100744.91;220922;1278;24458;-74
2023/02/13 02:32:35;;;;;;;72.40;38.10;;;;;;;2.42;90.06;100743.92;220260;1283;22577;-75
2023/02/13 02:38:07;;;;;;;75.50;37.80;;;;;;;2.45;89.85;100743.56;220640;1283;24126;-73
2023/02/13 02:43:28;;;;;;;86.50;39.60;;;;;;;2.47;89.69;100745.70;220935;1283;22542;-74
2023/02/13 03:22:19;;;;;;;66.00;32.80;;;;;;;2.67;89.84;100755.19;221358;1278;26383;-76
2023/02/13 03:33:40;;;;;;;66.50;32.40;;;;;;;2.62;89.81;100751.47;221426;1279;22549;-74
2023/02/13 03:39:09;;;;;;;66.60;31.90;;;;;;;2.59;89.54;100751.83;221537;1280;22537;-75
2023/02/13 03:44:24;;;;;;;62.70;31.70;;;;;;;2.58;89.87;100753.29;221417;1277;25295;-74
2023/02/13 04:00:26;;;;;;;61.50;28.90;;;;;;;2.62;90.05;100743.46;221456;1280;22671;-75
2023/02/13 04:05:31;;;;;;;54.10;27.90;;;;;;;2.66;90.17;100741.50;221378;1280;22544;-74
2023/02/13 04:10:41;;;;;;;56.90;28.10;;;;;;;2.70;90.26;100742.64;221399;1280;22797;-73
2023/02/13 04:15:50;;;;;;;;;;;;;;;2.71;90.10;100743.09;221148;1280;24251;-73
2023/02/13 04:20:52;;;;;;;47.10;25.90;;;;;;;2.73;90.15;100742.30;221339;1280;25498;-75
2023/02/13 04:25:56;;;;;;;51.00;26.10;;;;;;;2.73;90.06;100743.12;221388;1279;25366;-74
2023/02/13 04:30:59;;;;;;;48.70;24.20;;;;;;;2.71;90.21;100733.34;221350;1277;24929;-74
2023/02/13 04:36:03;;;;;;;47.60;25.10;;;;;;;2.66;90.32;100732.23;221154;1280;22544;-73
2023/02/13 04:41:05;;;;;;;47.10;25.00;;;;;;;2.64;90.37;100737.61;221289;1280;23271;-74
2023/02/13 04:46:08;;;;;;;49.20;25.00;;;;;;;2.63;90.40;100739.92;221213;1280;25391;-74
2023/02/13 04:51:13;;;;;;;45.60;25.20;;;;;;;2.60;90.40;100744.13;221369;1278;23799;-73
2023/02/13 04:56:16;;;;;;;47.80;25.00;;;;;;;2.58;90.54;100741.77;221489;1278;25300;-74
2023/02/13 05:01:21;;;;;;;41.70;23.90;;;;;;;2.55;90.56;100738.13;221376;1278;23018;-75
2023/02/13 05:06:24;;;;;;;46.60;24.70;;;;;;;2.53;90.57;100733.02;221185;1278;25036;-74
2023/02/13 05:11:27;;;;;;;39.80;22.00;;;;;;;2.54;90.74;100732.94;221472;1262;22786;-75
2023/02/13 05:16:29;;;;;;;41.00;21.80;;;;;;;2.51;90.41;100732.59;221293;1256;22582;-75
2023/02/13 05:26:52;;;;;;;35.20;20.20;;;;;;;2.31;90.27;100726.48;221387;1280;22545;-74
2023/02/13 05:31:57;;;;;;;35.80;20.80;;;;;;;2.18;89.95;100729.14;221412;1280;22540;-75
2023/02/13 05:37:00;;;;;;;39.70;22.70;;;;;;;2.12;90.24;100728.38;221456;1258;22544;-74
2023/02/13 05:42:03;;;;;;;36.20;20.90;;;;;;;2.12;90.77;100728.91;221281;1279;22530;-74
2023/02/13 05:47:06;;;;;;;38.00;20.40;;;;;;;2.16;91.08;100723.67;221456;1278;22518;-74
2023/02/13 05:52:10;;;;;;;37.00;20.00;;;;;;;2.21;90.91;100729.16;221544;1276;22541;-73
2023/02/13 05:57:12;;;;;;;35.60;19.80;;;;;;;2.25;90.82;100728.19;221337;1279;22537;-73
2023/02/13 06:02:14;;;;;;;31.40;18.60;;;;;;;2.28;90.85;100729.77;221404;1278;22573;-76
2023/02/13 06:07:16;;;;;;;30.30;17.20;;;;;;;2.25;90.56;100736.73;221506;1280;22538;-75
2023/02/13 06:12:19;;;;;;;34.60;19.40;;;;;;;2.16;90.54;100740.89;221059;1279;24211;-75
2023/02/13 06:17:22;;;;;;;33.50;19.70;;;;;;;2.06;90.72;100743.70;221453;1280;22537;-74
2023/02/13 06:22:25;;;;;;;33.40;19.20;;;;;;;1.96;90.95;100747.89;221274;1280;25313;-74
2023/02/13 06:27:27;;;;;;;32.80;19.00;;;;;;;1.89;90.88;100746.73;221282;1280;22556;-75
2023/02/13 06:32:30;;;;;;;36.20;19.60;;;;;;;1.85;90.77;100743.51;221382;1280;22555;-74
2023/02/13 06:37:33;;;;;;;33.30;20.30;;;;;;;1.82;90.92;100738.11;221376;1280;24284;-74
2023/02/13 06:42:35;;;;;;;33.90;18.90;;;;;;;1.84;90.59;100742.34;221191;1280;25485;-74
2023/02/13 06:47:42;;;;;;;31.70;19.10;;;;;;;1.87;91.17;100744.92;221482;1277;22581;-74
2023/02/13 06:52:50;;;;;;;28.60;18.10;;;;;;;1.96;91.19;100755.05;221586;1273;24240;-74
2023/02/13 06:57:53;;;;;;;33.80;21.30;;;;;;;2.08;90.90;100755.42;221572;1273;22575;-75
2023/02/13 07:03:01;;;;;;;31.80;19.50;;;;;;;2.19;91.02;100756.55;221694;1273;26518;-74
2023/02/13 07:08:04;;;;;;;33.50;20.70;;;;;;;2.32;91.17;100753.89;221889;1269;22570;-74
2023/02/13 07:13:06;;;;;;;34.20;19.90;;;;;;;2.50;90.92;100760.33;221587;1266;25316;-75
2023/02/13 07:18:08;;;;;;;29.80;18.70;;;;;;;2.74;91.15;100761.70;221637;1263;25233;-73
2023/02/13 07:23:10;;;;;;;28.80;17.90;;;;;;;2.98;91.05;100755.60;221803;1261;139903;-74
2023/02/13 07:28:13;;;;;;;32.20;18.50;;;;;;;3.17;90.86;100753.42;221618;1256;139331;-74
2023/02/13 07:33:15;;;;;;;28.40;17.60;;;;;;;3.33;90.81;100760.61;221753;1272;22554;-73
2023/02/13 07:38:18;;;;;;;31.90;17.00;;;;;;;3.47;90.63;100758.33;221662;1266;138992;-73
2023/02/13 07:43:20;;;;;;;28.90;17.60;;;;;;;3.59;90.40;100760.90;221420;1273;139106;-73
2023/02/13 07:48:26;;;;;;;30.10;17.90;;;;;;;3.67;90.00;100762.86;221453;1267;140688;-74
2023/02/13 07:53:28;;;;;;;379.30;46.10;;;;;;;3.73;89.67;100760.75;221458;1266;137830;-74
2023/02/13 07:58:31;;;;;;;64.10;20.80;;;;;;;3.76;89.62;100760.90;221603;1265;140530;-75
2023/02/13 08:03:33;;;;;;;30.60;18.40;;;;;;;3.82;89.52;100761.25;221722;1266;24238;-76
2023/02/13 08:08:37;;;;;;;35.50;20.40;;;;;;;3.90;89.58;100752.69;221501;1273;138800;-75
2023/02/13 08:13:40;;;;;;;31.00;18.80;;;;;;;3.97;89.40;100751.75;221839;1263;139454;-74
2023/02/13 08:18:42;;;;;;;30.30;20.00;;;;;;;3.99;89.11;100747.27;221547;1267;140246;-75
2023/02/13 08:23:44;;;;;;;31.20;18.40;;;;;;;4.01;89.17;100743.96;221802;1261;138871;-75
2023/02/13 08:28:48;;;;;;;34.70;19.10;;;;;;;4.06;89.13;100753.04;221478;1261;138777;-78
2023/02/13 08:33:50;;;;;;;33.70;19.00;;;;;;;4.18;89.23;100751.41;221676;1267;157336;-74
2023/02/13 08:38:52;;;;;;;69.80;19.90;;;;;;;4.35;89.52;100756.56;221597;1267;138607;-73
2023/02/13 08:43:55;;;;;;;37.80;14.90;;;;;;;4.56;89.63;100755.91;221457;1266;139126;-74
2023/02/13 08:48:57;;;;;;;23.10;12.60;;;;;;;4.68;89.27;100762.81;221581;1276;138774;-74
2023/02/13 08:53:59;;;;;;;21.40;11.50;;;;;;;4.75;89.24;100758.47;221603;1273;138764;-74
2023/02/13 08:59:01;;;;;;;37.90;13.30;;;;;;;4.82;88.91;100755.52;221369;1267;140513;-73
2023/02/13 09:04:03;;;;;;;20.30;12.40;;;;;;;4.88;88.71;100753.77;221751;1267;22591;-77
2023/02/13 09:09:06;;;;;;;19.40;12.10;;;;;;;4.94;88.85;100753.17;221501;1277;139410;-73
2023/02/13 09:14:08;;;;;;;21.60;12.70;;;;;;;5.03;88.92;100756.10;221522;1260;139155;-74
2023/02/13 09:19:10;;;;;;;28.20;15.50;;;;;;;5.10;88.64;100757.64;221708;1270;139185;-74
2023/02/13 09:24:13;;;;;;;21.30;14.60;;;;;;;5.23;88.73;100757.10;221792;1266;138988;-76
2023/02/13 09:29:15;;;;;;;21.60;14.00;;;;;;;5.37;88.59;100758.13;221551;1265;139006;-76
2023/02/13 09:34:17;;;;;;;16.40;11.80;;;;;;;5.54;88.77;100761.77;221536;1273;138850;-77
2023/02/13 09:39:19;;;;;;;18.80;12.70;;;;;;;5.70;88.65;100768.00;221882;1266;27920;-76
2023/02/13 09:44:42;;;;;;;19.10;12.50;;;;;;;5.80;88.40;100763.98;221903;1270;138494;-76
2023/02/13 09:50:18;;;;;;;20.90;12.90;;;;;;;5.87;88.56;100761.15;221718;1273;138960;-77
2023/02/13 09:55:51;;;;;;;17.70;12.10;;;;;;;5.89;88.30;100754.61;221552;1272;139767;-78
2023/02/13 10:00:59;;;;;;;19.00;12.30;;;;;;;5.73;87.54;100757.27;221874;1273;139002;-78
2023/02/13 10:06:10;;;;;;;19.60;12.80;;;;;;;5.63;87.87;100763.25;221626;1269;138787;-76
2023/02/13 10:11:43;;;;;;;25.60;13.20;;;;;;;5.57;87.94;100760.34;221524;1273;138759;-77
2023/02/13 10:16:54;;;;;;;25.20;15.40;;;;;;;5.58;87.94;100749.29;221749;1262;139053;-77
2023/02/13 10:22:00;;;;;;;25.00;14.70;;;;;;;5.64;87.94;100743.42;221800;1273;22683;-77
2023/02/13 10:27:26;;;;;;;23.70;14.30;;;;;;;5.79;88.24;100736.73;221286;1277;139052;-77
2023/02/13 10:32:36;;;;;;;23.40;13.80;;;;;;;5.79;87.73;100724.46;221704;1269;139244;-77
2023/02/13 10:37:40;;;;;;;75.60;16.50;;;;;;;5.84;87.90;100724.00;222065;1264;138985;-77
2023/02/13 10:42:51;;;;;;;23.20;13.70;;;;;;;5.91;88.08;100721.73;221576;1275;138860;-75
2023/02/13 10:48:01;;;;;;;22.40;13.70;;;;;;;6.03;88.29;100716.50;221442;1265;138903;-76
2023/02/13 10:53:13;;;;;;;19.60;12.00;;;;;;;6.22;88.22;100713.31;221482;1267;138864;-76
2023/02/13 10:58:21;;;;;;;18.70;12.20;;;;;;;6.31;87.85;100700.77;221499;1279;138838;-76
2023/02/13 11:03:29;;;;;;;13.60;9.20;;;;;;;6.32;88.08;100690.70;222105;1266;26877;-76
2023/02/13 11:08:42;;;;;;;14.50;8.70;;;;;;;6.46;88.41;100685.32;221773;1275;138427;-77
2023/02/13 11:13:45;;;;;;;22.70;9.70;;;;;;;6.75;88.11;100686.80;221372;1277;139358;-77
2023/02/13 11:18:49;;;;;;;17.20;9.20;;;;;;;6.86;87.49;100680.01;221728;1265;138764;-76
2023/02/13 11:23:56;;;;;;;20.20;9.30;;;;;;;6.87;87.16;100676.98;221890;1261;138725;-76
2023/02/13 11:29:25;;;;;;;14.70;8.50;;;;;;;6.81;87.26;100678.63;221964;1274;138803;-75
2023/02/13 11:34:30;;;;;;;16.00;8.20;;;;;;;6.70;87.23;100677.00;221580;1277;138611;-75
2023/02/13 11:39:44;;;;;;;12.90;7.60;;;;;;;6.58;87.12;100677.95;221847;1273;22539;-76
2023/02/13 11:45:20;;;;;;;14.70;7.70;;;;;;;6.54;87.21;100676.84;221775;1279;139097;-76
2023/02/13 11:50:33;;;;;;;22.90;7.70;;;;;;;6.58;87.65;100670.95;221681;1277;138621;-75
2023/02/13 11:55:41;;;;;;;11.80;7.80;;;;;;;6.66;87.72;100670.87;221512;1267;138465;-75
2023/02/13 12:00:45;;;;;;;11.40;8.80;;;;;;;6.72;87.60;100658.14;221599;1267;138645;-74
2023/02/13 12:06:08;;;;;;;14.70;9.80;;;;;;;6.78;87.41;100648.23;221941;1259;138623;-77
2023/02/13 12:11:41;;;;;;;19.00;11.00;;;;;;;6.81;87.33;100649.95;221882;1259;138740;-77
2023/02/13 12:16:59;;;;;;;15.90;10.00;;;;;;;6.69;86.88;100651.14;221798;1265;139002;-76
2023/02/13 12:22:29;;;;;;;21.40;11.90;;;;;;;6.60;87.17;100648.34;221955;1275;22565;-76
2023/02/13 12:27:55;;;;;;;17.40;12.00;;;;;;;6.52;87.68;100648.29;222087;1277;22632;-77
2023/02/13 12:33:34;;;;;;;17.60;11.60;;;;;;;6.39;87.04;100649.09;221916;1266;138915;-77
2023/02/13 12:38:45;;;;;;;17.40;12.30;;;;;;;6.25;87.34;100655.76;221763;1260;139218;-77
2023/02/13 12:44:18;;;;;;;18.10;13.50;;;;;;;6.18;87.73;100651.25;222080;1273;137636;-77
2023/02/13 12:49:43;;;;;;;22.20;14.30;;;;;;;6.16;87.66;100652.58;221849;1272;139379;-77
2023/02/13 12:55:09;;;;;;;21.60;16.50;;;;;;;6.20;88.04;100645.48;221593;1272;139259;-77
2023/02/13 13:00:53;;;;;;;24.30;18.90;;;;;;;6.20;87.66;100649.30;221463;1265;138850;-78
2023/02/13 13:06:38;;;;;;;26.20;19.10;;;;;;;6.20;87.87;100646.83;221584;1270;138904;-76
2023/02/13 13:12:06;;;;;;;30.10;21.20;;;;;;;6.24;88.00;100642.38;221765;1274;139352;-77
2023/02/13 13:17:30;;;;;;;30.60;20.90;;;;;;;6.34;88.26;100640.70;221697;1272;138800;-77
2023/02/13 13:22:52;;;;;;;29.60;22.10;;;;;;;6.49;88.48;100646.45;221783;1262;139512;-77
2023/02/13 13:28:00;;;;;;;27.80;21.40;;;;;;;6.58;88.42;100650.78;221815;1274;22558;-77
2023/02/13 13:33:24;;;;;;;30.00;20.80;;;;;;;6.61;87.66;100654.45;221825;1273;138828;-77
2023/02/13 13:38:58;;;;;;;27.80;19.70;;;;;;;6.58;87.79;100654.70;221688;1273;139230;-77
2023/02/13 13:44:36;;;;;;;22.40;14.40;;;;;;;6.50;87.90;100654.43;221657;1273;139153;-76
2023/02/13 13:49:51;;;;;;;24.30;15.90;;;;;;;6.37;87.89;100647.49;221670;1267;139288;-77
2023/02/13 13:54:59;;;;;;;19.20;13.60;;;;;;;6.31;88.15;100642.89;221782;1273;139221;-77
2023/02/13 14:00:10;;;;;;;16.50;10.50;;;;;;;6.29;88.01;100642.69;221686;1275;138994;-77
2023/02/13 14:05:50;;;;;;;11.50;8.60;;;;;;;6.26;87.94;100646.56;221717;1272;138832;-77
2023/02/13 14:11:02;;;;;;;11.70;8.70;;;;;;;6.20;87.84;100645.62;221763;1259;138703;-77
2023/02/13 14:16:11;;;;;;;10.90;7.40;;;;;;;6.12;87.62;100638.02;221860;1273;22543;-76
2023/02/13 14:21:22;;;;;;;9.40;7.10;;;;;;;6.03;87.63;100633.80;221489;1266;22688;-76
2023/02/13 14:26:30;;;;;;;11.50;6.50;;;;;;;5.92;87.45;100646.61;221699;1257;138352;-77
2023/02/13 14:31:34;;;;;;;7.60;6.40;;;;;;;5.82;87.64;100652.60;221786;1258;138638;-76
2023/02/13 14:36:38;;;;;;;5.70;5.00;;;;;;;5.69;87.74;100658.42;221541;1262;139214;-77
2023/02/13 14:41:55;;;;;;;6.50;4.80;;;;;;;5.54;87.67;100648.00;221970;1265;140159;-76
2023/02/13 14:47:04;;;;;;;6.00;5.00;;;;;;;5.40;87.70;100634.34;221660;1263;138965;-76
2023/02/13 14:52:42;;;;;;;7.10;4.80;;;;;;;5.29;87.85;100622.84;221648;1270;25303;-77
2023/02/13 14:58:19;;;;;;;9.00;5.10;;;;;;;5.19;87.79;100623.91;221428;1266;23830;-77
2023/02/13 15:03:30;;;;;;;10.50;7.50;;;;;;;5.11;87.85;100623.83;222312;1260;22524;-77
2023/02/13 15:08:41;;;;;;;12.90;8.40;;;;;;;5.05;88.04;100621.62;221371;1273;24221;-78
2023/02/13 15:13:43;;;;;;;9.70;5.90;;;;;;;5.00;88.15;100617.10;221365;1280;22533;-78
2023/02/13 15:18:51;;;;;;;10.20;4.60;;;;;;;4.95;87.94;100625.77;221323;1278;22673;-77
2023/02/13 15:23:55;;;;;;;6.50;4.60;;;;;;;4.89;87.72;100615.76;221535;1276;22634;-77
2023/02/13 15:29:16;;;;;;;6.70;5.10;;;;;;;4.83;87.54;100620.20;221314;1275;24301;-77
2023/02/13 15:34:33;;;;;;;8.70;5.50;;;;;;;4.77;87.53;100610.49;221053;1280;22543;-76
2023/02/13 15:39:35;;;;;;;6.70;5.30;;;;;;;4.71;87.44;100609.20;221168;1279;22530;-77
2023/02/13 15:44:39;;;;;;;6.70;5.70;;;;;;;4.63;87.28;100611.96;221179;1281;24482;-76
2023/02/13 15:49:45;;;;;;;13.00;8.30;;;;;;;4.57;87.56;100611.88;221289;1278;22539;-77
2023/02/13 15:54:53;;;;;;;9.90;7.40;;;;;;;4.53;87.61;100614.77;221164;1280;22533;-78
2023/02/13 15:59:59;;;;;;;10.10;7.50;;;;;;;4.49;87.67;100625.28;221295;1278;22555;-77
2023/02/13 16:05:02;;;;;;;9.20;7.60;;;;;;;4.47;87.58;100619.52;221398;1278;22550;-77
2023/02/13 16:10:31;;;;;;;9.90;7.50;;;;;;;4.44;87.64;100622.34;221270;1280;22547;-78
2023/02/13 16:15:36;;;;;;;12.10;8.10;;;;;;;4.41;87.52;100625.00;221336;1277;22536;-77
2023/02/13 16:20:38;;;;;;;10.80;8.60;;;;;;;4.38;87.76;100617.91;221373;1280;25379;-76
2023/02/13 16:25:40;;;;;;;10.00;8.10;;;;;;;4.34;87.59;100606.27;221357;1276;22534;-80
2023/02/13 16:30:45;;;;;;;12.80;9.00;;;;;;;4.33;87.67;100621.54;221421;1275;25304;-77
2023/02/13 16:35:53;;;;;;;12.10;8.20;;;;;;;4.33;87.63;100609.85;221552;1280;25422;-77
2023/02/13 16:41:27;;;;;;;14.90;9.70;;;;;;;4.33;87.54;100615.77;221564;1273;24305;-78
2023/02/13 16:46:46;;;;;;;18.50;12.00;;;;;;;4.33;87.45;100621.23;221302;1279;22543;-77
2023/02/13 16:52:07;;;;;;;21.00;12.80;;;;;;;4.30;87.47;100614.27;221069;1272;22891;-78
2023/02/13 16:57:21;;;;;;;16.00;11.40;;;;;;;4.27;87.47;100621.23;221424;1280;22562;-78
2023/02/13 17:02:34;;;;;;;16.20;11.60;;;;;;;4.26;87.56;100624.79;221451;1280;22636;-77
2023/02/13 17:07:42;;;;;;;16.60;12.20;;;;;;;4.25;87.58;100621.37;221218;1278;24113;-77
2023/02/13 17:12:46;;;;;;;13.30;10.20;;;;;;;4.26;87.74;100621.34;221160;1280;22625;-78
2023/02/13 17:17:55;;;;;;;13.80;10.80;;;;;;;4.23;87.59;100604.79;221196;1275;24269;-77
2023/02/13 17:23:00;;;;;;;14.60;10.20;;;;;;;4.20;87.81;100597.83;221108;1277;22671;-77
2023/02/13 17:28:18;;;;;;;18.30;12.50;;;;;;;4.19;87.81;100598.20;221317;1275;24338;-76
2023/02/13 17:33:25;;;;;;;14.70;11.00;;;;;;;4.18;87.85;100599.52;221002;1278;22578;-77
2023/02/13 17:38:27;;;;;;;13.80;11.00;;;;;;;4.14;87.88;100599.62;221141;1270;26415;-77
2023/02/13 17:43:30;;;;;;;17.00;12.70;;;;;;;4.10;87.99;100587.02;221211;1281;22571;-76
2023/02/13 17:48:32;;;;;;;21.40;15.60;;;;;;;4.05;88.03;100581.41;221072;1280;22539;-77
2023/02/13 17:53:35;;;;;;;22.70;16.80;;;;;;;4.00;88.06;100579.98;221140;1275;26078;-78
2023/02/13 17:58:38;;;;;;;22.80;16.40;;;;;;;3.97;88.10;100592.74;221232;1275;25026;-77
2023/02/13 18:03:40;;;;;;;25.50;18.40;;;;;;;3.95;88.43;100595.18;221374;1276;22538;-77
2023/02/13 18:08:42;;;;;;;25.80;18.60;;;;;;;3.91;88.45;100585.98;221541;1280;24226;-77
2023/02/13 18:13:47;;;;;;;28.60;19.50;;;;;;;3.87;88.65;100580.65;221369;1278;22658;-77
2023/02/13 18:18:49;;;;;;;24.90;16.80;;;;;;;3.86;88.80;100596.60;221469;1275;22546;-77
2023/02/13 18:23:52;;;;;;;23.30;15.80;;;;;;;3.89;89.06;100577.38;221502;1275;24294;-78
2023/02/13 18:28:55;;;;;;;22.40;16.00;;;;;;;3.91;89.03;100568.02;221512;1278;23581;-77
2023/02/13 18:33:58;;;;;;;19.40;13.80;;;;;;;3.94;89.19;100538.23;221151;1278;25230;-77
2023/02/13 18:39:01;;;;;;;21.30;15.30;;;;;;;3.94;89.06;100558.95;221436;1275;22596;-77
2023/02/13 18:44:03;;;;;;;19.90;14.80;;;;;;;3.97;89.15;100582.14;221313;1281;24378;-77
2023/02/13 18:49:05;;;;;;;20.80;14.80;;;;;;;3.99;89.16;100582.84;221356;1278;22576;-77
2023/02/13 18:54:08;;;;;;;21.60;16.40;;;;;;;4.02;89.19;100587.90;221162;1281;25454;-76
2023/02/13 18:59:10;;;;;;;22.30;16.00;;;;;;;4.03;89.23;100597.02;220999;1271;25469;-78
2023/02/13 19:04:13;;;;;;;26.80;17.00;;;;;;;4.05;89.28;100604.73;221293;1280;22537;-77
2023/02/13 19:09:15;;;;;;;33.30;22.90;;;;;;;4.07;89.23;100607.94;221327;1278;22536;-77
2023/02/13 19:14:18;;;;;;;28.20;18.30;;;;;;;4.08;89.21;100607.34;221360;1280;22606;-77
2023/02/13 19:19:20;;;;;;;25.80;18.10;;;;;;;4.08;89.26;100606.98;221404;1280;22545;-78
2023/02/13 19:24:22;;;;;;;27.80;19.40;;;;;;;4.10;89.40;100614.21;221381;1277;22534;-79
2023/02/13 19:29:24;;;;;;;29.80;19.70;;;;;;;4.11;89.05;100617.98;221367;1278;22537;-78
2023/02/13 19:34:38;;;;;;;29.80;18.80;;;;;;;4.09;89.05;100614.59;221270;1269;24366;-77
2023/02/13 19:39:41;;;;;;;31.00;19.10;;;;;;;4.08;89.10;100625.30;221106;1281;25426;-78
2023/02/13 19:44:44;;;;;;;33.70;19.30;;;;;;;4.07;89.17;100625.52;220989;1278;25297;-78
2023/02/13 19:49:46;;;;;;;29.10;19.80;;;;;;;4.07;89.01;100625.37;220989;1281;24295;-77
2023/02/13 19:54:48;;;;;;;27.70;18.20;;;;;;;4.04;88.93;100623.81;221259;1278;22557;-77
2023/02/13 19:59:51;;;;;;;30.60;19.80;;;;;;;4.01;88.85;100624.90;221144;1278;24301;-77
2023/02/13 20:04:53;;;;;;;32.20;19.60;;;;;;;3.99;89.12;100618.59;221462;1278;25477;-76
2023/02/13 20:09:55;;;;;;;32.30;20.50;;;;;;;3.98;89.06;100622.13;221473;1276;22556;-77
2023/02/13 20:14:58;;;;;;;30.80;19.60;;;;;;;3.97;89.11;100619.44;221193;1278;22546;-77
2023/02/13 20:20:00;;;;;;;29.50;20.30;;;;;;;3.96;88.99;100629.06;221366;1278;22543;-77
2023/02/13 20:25:03;;;;;;;31.70;19.60;;;;;;;3.96;89.07;100638.63;221412;1278;22540;-77
2023/02/13 20:30:08;;;;;;;28.40;20.50;;;;;;;3.98;89.37;100653.69;221198;1276;24363;-77
2023/02/13 20:35:10;;;;;;;30.20;20.50;;;;;;;3.99;89.04;100660.23;221205;1281;99525;-77
2023/02/13 20:40:12;;;;;;;33.80;22.20;;;;;;;4.00;89.25;100664.58;221171;1278;22612;-77
2023/02/13 20:45:15;;;;;;;34.50;23.20;;;;;;;3.99;89.08;100669.66;221205;1281;22526;-77
2023/02/13 20:50:18;;;;;;;33.90;22.30;;;;;;;3.99;89.15;100670.55;221106;1278;22532;-76
2023/02/13 20:55:21;;;;;;;31.80;22.20;;;;;;;3.98;89.12;100668.35;221067;1281;22552;-77
2023/02/13 21:00:23;;;;;;;34.60;23.40;;;;;;;3.95;88.99;100668.70;221109;1278;22637;-76
2023/02/13 21:05:25;;;;;;;32.80;22.50;;;;;;;3.92;88.93;100668.02;221387;1265;23846;-77
2023/02/13 21:10:27;;;;;;;33.20;22.30;;;;;;;3.88;89.12;100661.30;221307;1278;22532;-77
2023/02/13 21:15:29;;;;;;;33.80;22.60;;;;;;;3.85;88.97;100657.46;221306;1278;22559;-77
2023/02/13 21:20:31;;;;;;;34.50;22.70;;;;;;;3.82;89.17;100653.33;221469;1276;22581;-77
2023/02/13 21:25:34;;;;;;;31.10;21.40;;;;;;;3.81;89.20;100654.27;221386;1276;24197;-77
2023/02/13 21:30:36;;;;;;;30.60;20.60;;;;;;;3.78;89.10;100643.30;221403;1280;22540;-76
2023/02/13 21:35:39;;;;;;;30.20;19.80;;;;;;;3.76;89.26;100636.48;221079;1263;25425;-76
2023/02/13 21:40:41;;;;;;;34.00;22.00;;;;;;;3.74;89.18;100640.75;221095;1281;25301;-78
2023/02/13 21:45:43;;;;;;;38.90;24.00;;;;;;;3.74;89.32;100647.58;221284;1278;25372;-77
2023/02/13 21:50:45;;;;;;;36.20;23.10;;;;;;;3.72;89.43;100648.36;221268;1262;25432;-78
2023/02/13 21:55:47;;;;;;;33.70;22.30;;;;;;;3.73;89.32;100642.74;221239;1280;25383;-77
2023/02/13 22:00:49;;;;;;;37.80;23.80;;;;;;;3.73;89.38;100633.16;221077;1281;22538;-77
2023/02/13 22:05:52;;;;;;;41.60;26.40;;;;;;;3.73;89.41;100629.16;221192;1278;23800;-77
2023/02/13 22:10:55;;;;;;;37.50;24.40;;;;;;;3.73;89.61;100632.80;221166;1279;24196;-77
2023/02/13 22:16:02;;;;;;;39.70;26.30;;;;;;;3.75;89.61;100633.21;221605;1278;22536;-76
2023/02/13 22:21:10;;;;;;;48.80;25.80;;;;;;;3.76;89.75;100635.41;221304;1278;22561;-77
2023/02/13 22:26:24;;;;;;;39.90;24.10;;;;;;;3.78;89.64;100634.42;221455;1278;24255;-77
2023/02/13 22:31:26;;;;;;;33.70;22.20;;;;;;;3.81;89.85;100639.42;221275;1260;25502;-76
2023/02/13 22:36:29;;;;;;;31.70;21.50;;;;;;;3.82;89.81;100638.67;221198;1281;23424;-77
2023/02/13 22:41:32;;;;;;;31.10;20.00;;;;;;;3.83;89.89;100642.95;221311;1279;22571;-77
2023/02/13 22:46:34;;;;;;;30.90;19.20;;;;;;;3.83;89.76;100635.67;221168;1281;22488;-76
2023/02/13 22:51:36;;;;;;;34.30;19.90;;;;;;;3.82;89.80;100631.04;221253;1278;22549;-77
2023/02/13 22:56:40;;;;;;;30.80;19.00;;;;;;;3.80;89.76;100633.06;221260;1278;24269;-76
2023/02/13 23:01:42;;;;;;;28.90;19.10;;;;;;;3.80;89.81;100633.77;221048;1280;24241;-76
2023/02/13 23:06:44;;;;;;;30.20;19.90;;;;;;;3.80;89.78;100632.58;221378;1278;22617;-78
2023/02/13 23:22:29;;;;;;;35.20;21.30;;;;;;;3.77;89.94;100631.52;221315;1278;22624;-76
2023/02/13 23:27:32;;;;;;;34.00;21.10;;;;;;;3.75;89.78;100630.77;221413;1272;23803;-77
2023/02/13 23:32:35;;;;;;;31.90;19.80;;;;;;;3.77;90.10;100635.34;221377;1278;22539;-78
2023/02/13 23:37:37;;;;;;;30.90;19.80;;;;;;;3.79;90.00;100634.88;221504;1278;25364;-77
2023/02/13 23:42:40;;;;;;;33.20;21.00;;;;;;;3.80;89.91;100631.11;221222;1275;26407;-77
2023/02/13 23:47:42;;;;;;;32.70;20.80;;;;;;;3.82;89.87;100633.97;221315;1278;22474;-78
2023/02/13 23:52:44;;;;;;;28.60;20.60;;;;;;;3.84;90.06;100630.57;221457;1278;24310;-77
2023/02/13 23:57:50;;;;;;;29.00;19.50;;;;;;;3.83;89.96;100627.48;221286;1279;22538;-78
